Time;durP1;ratioP1;P1;durP2;ratioP2;P2;SDS_P1;SDS_P2;PMS_P1;PMS_P2;Temp;Humidity;BMP_temperature;BMP_pressure;BME280_temperature;BME280_humidity;BME280_pressure;Samples;Min_cycle;Max_cycle;Signal;HPM_P1;HPM_P2
2021/07/12 00:00:08;;;;;;;20.23;18.08;;;16.20;97.00;;;;;;5031717;28;20030;-67
2021/07/12 00:02:33;;;;;;;23.05;19.30;;;16.20;97.10;;;;;;5029983;28;20045;-67
2021/07/12 00:04:59;;;;;;;22.95;18.13;;;16.20;97.10;;;;;;5026206;28;20488;-68
2021/07/12 00:07:24;;;;;;;21.20;17.48;;;16.20;97.20;;;;;;5034455;28;20025;-68
2021/07/12 00:09:50;;;;;;;18.13;16.23;;;16.10;97.20;;;;;;5031249;28;20442;-68
2021/07/12 00:12:15;;;;;;;12.93;11.50;;;16.10;97.30;;;;;;5030536;28;20472;-67
2021/07/12 00:14:42;;;;;;;11.73;9.98;;;16.10;97.30;;;;;;5034423;28;20105;-67
2021/07/12 00:17:07;;;;;;;9.93;7.95;;;16.00;97.30;;;;;;5033458;28;20088;-67
2021/07/12 00:19:33;;;;;;;10.43;9.32;;;16.10;97.30;;;;;;5031358;28;20037;-67
2021/07/12 00:21:58;;;;;;;13.43;11.82;;;16.10;97.30;;;;;;5032825;28;20392;-67
2021/07/12 00:24:24;;;;;;;15.00;13.35;;;16.00;97.40;;;;;;5026897;28;20022;-68
2021/07/12 00:26:49;;;;;;;17.23;15.30;;;16.00;97.40;;;;;;5030039;28;20037;-67
2021/07/12 00:29:15;;;;;;;19.27;16.00;;;16.10;97.50;;;;;;5033276;28;20022;-67
2021/07/12 00:31:40;;;;;;;20.98;18.77;;;16.10;97.50;;;;;;5028932;28;20055;-68
2021/07/12 00:34:07;;;;;;;22.65;20.13;;;16.10;97.40;;;;;;5032343;28;20048;-67
2021/07/12 00:36:32;;;;;;;22.70;19.77;;;16.10;97.50;;;;;;5034669;28;20075;-67
2021/07/12 00:38:58;;;;;;;27.33;22.27;;;16.00;97.50;;;;;;5032267;28;20041;-67
2021/07/12 00:41:23;;;;;;;24.40;20.85;;;16.10;97.60;;;;;;5022776;28;20429;-67
2021/07/12 00:43:49;;;;;;;23.17;20.50;;;16.00;97.60;;;;;;5028177;28;20017;-67
2021/07/12 00:46:14;;;;;;;24.23;19.42;;;16.00;97.70;;;;;;5032769;28;20026;-67
2021/07/12 00:48:40;;;;;;;21.70;19.08;;;16.00;97.70;;;;;;5033580;28;20022;-67
2021/07/12 00:51:05;;;;;;;21.85;18.70;;;16.00;97.70;;;;;;5019309;28;20025;-67
2021/07/12 00:53:31;;;;;;;22.88;19.52;;;15.90;97.70;;;;;;5018859;28;20030;-67
2021/07/12 00:55:57;;;;;;;23.95;20.30;;;15.90;97.80;;;;;;5031795;28;20120;-67
2021/07/12 00:58:26;;;;;;;23.80;18.90;;;15.90;97.80;;;;;;5033448;28;20476;-68
2021/07/12 01:00:58;;;;;;;21.52;19.15;;;15.90;97.90;;;;;;5030589;28;20056;-67
2021/07/12 01:03:24;;;;;;;23.52;20.60;;;15.90;97.90;;;;;;5033203;28;20048;-67
2021/07/12 01:05:51;;;;;;;26.15;21.77;;;15.80;97.90;;;;;;5029175;28;20050;-67
2021/07/12 01:08:16;;;;;;;27.55;23.38;;;15.80;98.00;;;;;;5031718;28;20029;-67
2021/07/12 01:10:48;;;;;;;29.38;23.88;;;15.80;98.00;;;;;;5029149;28;20030;-67
2021/07/12 01:13:35;;;;;;;27.75;24.73;;;15.80;98.10;;;;;;5026227;28;20026;-67
2021/07/12 01:16:08;;;;;;;24.30;20.42;;;15.70;98.10;;;;;;5026062;28;20033;-67
2021/07/12 01:18:41;;;;;;;17.75;15.73;;;15.70;98.10;;;;;;5024652;28;20017;-67
2021/07/12 01:21:53;;;;;;;22.15;17.48;;;15.60;98.10;;;;;;5033539;28;20095;-67
2021/07/12 01:24:43;;;;;;;22.63;17.80;;;15.60;98.10;;;;;;5029218;28;20508;-67
2021/07/12 01:27:38;;;;;;;23.73;20.30;;;15.60;98.20;;;;;;5029133;28;20030;-67
2021/07/12 01:30:09;;;;;;;21.92;19.35;;;15.60;98.20;;;;;;5032673;28;20107;-67
2021/07/12 01:32:42;;;;;;;25.52;19.35;;;15.50;98.30;;;;;;5032159;28;20040;-67
2021/07/12 01:35:32;;;;;;;24.35;20.60;;;15.50;98.30;;;;;;5031068;28;20502;-68
2021/07/12 01:38:14;;;;;;;23.48;19.45;;;15.50;98.30;;;;;;5031491;28;20029;-66
2021/07/12 01:40:58;;;;;;;26.30;20.77;;;15.50;98.30;;;;;;5022587;28;20028;-66
2021/07/12 01:44:05;;;;;;;24.95;20.55;;;15.40;98.30;;;;;;5022218;28;20039;-66
2021/07/12 01:46:46;;;;;;;21.45;18.00;;;15.40;98.40;;;;;;5019269;28;20487;-66
2021/07/12 01:49:35;;;;;;;23.67;20.65;;;15.40;98.40;;;;;;5028550;28;20431;-66
2021/07/12 01:52:09;;;;;;;23.30;19.05;;;15.40;98.40;;;;;;5024117;28;20034;-66
2021/07/12 01:55:08;;;;;;;18.20;16.27;;;15.30;98.40;;;;;;5029885;28;20021;-66
2021/07/12 01:57:51;;;;;;;15.20;11.98;;;15.30;98.50;;;;;;5030853;28;20230;-66
2021/07/12 02:00:19;;;;;;;15.85;13.45;;;15.30;98.40;;;;;;5031312;28;20029;-66
2021/07/12 02:02:47;;;;;;;19.88;16.55;;;15.20;98.40;;;;;;5030567;28;20021;-67
2021/07/12 02:05:22;;;;;;;24.10;19.85;;;15.20;98.50;;;;;;5030646;28;20044;-67
2021/07/12 02:07:49;;;;;;;20.25;18.05;;;15.20;98.50;;;;;;5025533;28;20040;-67
2021/07/12 02:10:18;;;;;;;22.65;19.45;;;15.10;98.60;;;;;;5025770;28;20041;-67
2021/07/12 02:12:47;;;;;;;20.83;18.67;;;15.10;98.70;;;;;;5025658;28;20049;-67
2021/07/12 02:15:14;;;;;;;22.77;19.67;;;15.10;98.70;;;;;;5030910;28;20021;-67
2021/07/12 02:17:40;;;;;;;22.88;20.33;;;15.10;98.80;;;;;;5031591;28;20034;-67
2021/07/12 02:20:08;;;;;;;26.92;22.40;;;15.10;98.80;;;;;;5030168;28;20542;-67
2021/07/12 02:22:36;;;;;;;29.65;24.00;;;15.00;98.80;;;;;;5029757;28;20033;-67
2021/07/12 02:25:02;;;;;;;28.77;23.00;;;15.00;98.80;;;;;;5029907;28;20121;-66
2021/07/12 02:27:28;;;;;;;27.58;22.88;;;15.10;99.20;;;;;;5020773;28;20068;-67
2021/07/12 02:29:55;;;;;;;27.75;23.38;;;15.00;98.80;;;;;;5028578;28;20098;-67
2021/07/12 02:32:22;;;;;;;28.63;23.50;;;15.00;98.90;;;;;;5031484;28;20507;-67
2021/07/12 02:34:49;;;;;;;26.30;21.63;;;15.00;98.90;;;;;;5020962;28;20037;-67
2021/07/12 02:37:15;;;;;;;26.75;22.58;;;15.00;98.90;;;;;;5032727;28;20384;-67
2021/07/12 02:39:45;;;;;;;27.33;22.98;;;15.00;98.90;;;;;;5020870;28;20057;-67
2021/07/12 02:42:11;;;;;;;29.13;23.58;;;15.00;99.00;;;;;;5026226;28;20134;-67
2021/07/12 02:44:38;;;;;;;28.90;22.60;;;15.00;99.00;;;;;;5029657;28;20034;-67
2021/07/12 02:47:04;;;;;;;30.58;25.45;;;14.90;99.00;;;;;;5032191;28;20027;-67
2021/07/12 02:49:31;;;;;;;29.73;24.65;;;14.90;99.30;;;;;;5030332;28;20044;-66
2021/07/12 02:52:00;;;;;;;33.10;26.13;;;14.90;99.00;;;;;;5029027;28;20045;-66
2021/07/12 02:54:32;;;;;;;28.15;24.45;;;14.90;99.10;;;;;;5027354;28;20025;-67
2021/07/12 02:56:57;;;;;;;33.63;26.20;;;14.90;99.10;;;;;;5033676;28;20063;-67
2021/07/12 02:59:23;;;;;;;30.92;25.40;;;14.80;99.10;;;;;;5034252;28;20033;-67
2021/07/12 03:01:48;;;;;;;26.92;21.60;;;14.80;99.20;;;;;;5035015;28;20029;-67
2021/07/12 03:04:14;;;;;;;27.65;22.52;;;14.80;99.20;;;;;;5029662;28;20030;-66
2021/07/12 03:06:45;;;;;;;26.45;21.52;;;14.80;99.10;;;;;;5036566;28;20021;-67
2021/07/12 03:09:13;;;;;;;25.00;21.67;;;14.80;99.10;;;;;;5033791;28;20084;-67
2021/07/12 03:11:54;;;;;;;27.25;23.60;;;14.80;99.10;;;;;;5034125;28;20021;-67
2021/07/12 03:14:30;;;;;;;25.67;20.92;;;14.80;99.10;;;;;;5029240;28;20029;-67
2021/07/12 03:16:56;;;;;;;29.85;22.98;;;14.70;99.20;;;;;;5035573;28;20056;-66
2021/07/12 03:19:26;;;;;;;26.80;22.20;;;14.70;99.20;;;;;;5035181;28;20109;-67
2021/07/12 03:21:55;;;;;;;28.48;23.08;;;14.70;99.20;;;;;;5023111;28;20057;-66
2021/07/12 03:24:21;;;;;;;32.97;24.67;;;14.70;99.20;;;;;;5025450;28;20030;-67
2021/07/12 03:26:52;;;;;;;29.33;24.95;;;14.70;99.30;;;;;;5032397;28;20042;-67
2021/07/12 03:29:18;;;;;;;29.55;22.92;;;14.70;99.30;;;;;;5033258;28;20506;-67
2021/07/12 03:31:44;;;;;;;30.42;24.20;;;14.70;99.30;;;;;;5033950;28;20055;-66
2021/07/12 03:34:13;;;;;;;34.60;28.55;;;14.70;99.30;;;;;;5032048;28;20030;-67
2021/07/12 03:36:40;;;;;;;32.88;26.80;;;14.70;99.30;;;;;;5033540;28;20055;-66
2021/07/12 03:39:06;;;;;;;35.80;28.90;;;14.70;99.40;;;;;;5031902;28;20025;-66
2021/07/12 03:41:32;;;;;;;36.17;29.17;;;14.70;99.40;;;;;;5032307;28;20056;-67
2021/07/12 03:43:59;;;;;;;36.88;28.38;;;14.70;99.40;;;;;;5034263;28;20018;-66
2021/07/12 03:46:25;;;;;;;32.53;25.40;;;14.80;99.40;;;;;;5033608;28;20061;-66
2021/07/12 03:48:50;;;;;;;33.63;26.23;;;14.70;99.40;;;;;;5034359;28;20103;-66
2021/07/12 03:51:20;;;;;;;26.98;22.25;;;14.70;99.40;;;;;;5026882;28;20880;-66
2021/07/12 03:53:46;;;;;;;31.33;23.70;;;14.70;99.50;;;;;;5030429;28;20026;-66
2021/07/12 03:56:13;;;;;;;35.53;26.15;;;14.70;99.50;;;;;;5033088;28;20029;-66
2021/07/12 03:58:38;;;;;;;36.25;28.98;;;14.70;99.50;;;;;;5033269;28;20469;-66
2021/07/12 04:01:04;;;;;;;40.17;30.45;;;14.70;99.50;;;;;;5024474;28;20068;-66
2021/07/12 04:03:30;;;;;;;39.30;29.23;;;14.70;99.50;;;;;;5033169;28;20061;-66
2021/07/12 04:05:56;;;;;;;44.22;32.10;;;14.80;99.60;;;;;;5032633;28;20022;-66
2021/07/12 04:08:21;;;;;;;40.78;29.83;;;14.80;99.60;;;;;;5034414;28;20108;-66
2021/07/12 04:10:48;;;;;;;34.95;27.98;;;14.80;99.60;;;;;;5032405;28;20456;-66
2021/07/12 04:13:13;;;;;;;38.75;29.95;;;14.80;99.60;;;;;;5028968;28;20057;-66
2021/07/12 04:15:40;;;;;;;35.65;29.30;;;14.90;99.60;;;;;;5020620;28;20060;-66
2021/07/12 04:18:06;;;;;;;39.38;32.45;;;14.90;99.60;;;;;;5025722;28;20041;-66
2021/07/12 04:20:32;;;;;;;40.22;30.38;;;15.00;99.60;;;;;;5029075;28;20030;-66
2021/07/12 04:22:59;;;;;;;45.58;31.30;;;15.00;99.60;;;;;;5034906;28;20060;-66
2021/07/12 04:25:26;;;;;;;42.85;30.48;;;15.10;99.60;;;;;;5028463;28;20080;-66
2021/07/12 04:27:51;;;;;;;35.78;27.92;;;15.10;99.60;;;;;;5033202;28;20120;-66
2021/07/12 04:30:17;;;;;;;36.50;27.60;;;15.20;99.60;;;;;;5033624;28;20112;-66
2021/07/12 04:32:43;;;;;;;30.00;24.17;;;15.20;99.50;;;;;;5017879;28;20112;-66
2021/07/12 04:35:10;;;;;;;30.05;24.08;;;15.30;99.50;;;;;;5029575;28;20847;-66
2021/07/12 04:37:38;;;;;;;31.55;24.95;;;15.30;99.40;;;;;;5035215;28;20029;-66
2021/07/12 04:40:05;;;;;;;31.10;25.77;;;15.40;99.40;;;;;;5029844;28;20037;-66
2021/07/12 04:42:31;;;;;;;34.97;27.90;;;15.40;99.40;;;;;;5027479;28;20562;-66
2021/07/12 04:44:57;;;;;;;44.28;32.25;;;15.50;99.40;;;;;;5027915;28;20072;-67
2021/07/12 04:47:23;;;;;;;46.28;36.28;;;15.60;99.30;;;;;;5028677;28;20534;-67
2021/07/12 04:49:48;;;;;;;47.92;33.95;;;15.70;99.30;;;;;;5027341;28;20044;-67
2021/07/12 04:52:14;;;;;;;51.15;38.58;;;15.70;99.30;;;;;;5029046;28;20022;-67
2021/07/12 04:54:40;;;;;;;38.42;28.50;;;15.90;99.30;;;;;;5025819;28;20044;-67
2021/07/12 04:57:05;;;;;;;41.58;31.48;;;15.90;99.30;;;;;;5034506;28;20033;-67
2021/07/12 04:59:37;;;;;;;39.08;29.13;;;16.00;99.20;;;;;;5032553;28;20025;-67
2021/07/12 05:02:03;;;;;;;;;;;16.00;99.20;;;;;;5031905;28;20025;-67
2021/07/12 05:04:29;;;;;;;38.90;30.15;;;16.10;99.20;;;;;;5034256;28;20318;-67
2021/07/12 05:06:54;;;;;;;37.85;28.02;;;16.30;99.30;;;;;;5031518;28;20119;-66
2021/07/12 05:09:20;;;;;;;35.88;28.90;;;16.30;99.20;;;;;;5028063;28;20468;-66
2021/07/12 05:11:46;;;;;;;38.97;29.48;;;16.50;99.30;;;;;;5021274;28;20033;-67
2021/07/12 05:14:11;;;;;;;37.00;27.88;;;16.60;99.30;;;;;;5025479;28;20029;-67
2021/07/12 05:16:40;;;;;;;37.20;30.40;;;16.80;99.30;;;;;;5030966;28;20041;-67
2021/07/12 05:19:06;;;;;;;38.63;31.13;;;16.90;99.20;;;;;;5029920;28;20029;-67
2021/07/12 05:21:32;;;;;;;49.95;35.33;;;17.10;99.10;;;;;;5022371;28;20033;-67
2021/07/12 05:23:58;;;;;;;45.38;34.65;;;17.20;98.90;;;;;;5031633;28;20049;-67
2021/07/12 05:26:23;;;;;;;48.50;34.45;;;17.30;98.90;;;;;;5034181;28;20026;-67
2021/07/12 05:28:49;;;;;;;42.58;32.90;;;17.40;98.80;;;;;;5030444;28;20037;-67
2021/07/12 05:31:14;;;;;;;40.83;32.97;;;17.60;98.80;;;;;;5023125;28;20025;-66
2021/07/12 05:33:40;;;;;;;41.88;36.00;;;17.60;98.70;;;;;;5027405;28;20021;-67
2021/07/12 05:36:05;;;;;;;45.97;37.80;;;17.80;98.60;;;;;;5029904;28;20026;-66
2021/07/12 05:38:31;;;;;;;49.42;39.42;;;17.90;98.60;;;;;;5032125;28;20072;-67
2021/07/12 05:40:57;;;;;;;41.17;34.95;;;18.00;98.50;;;;;;5024135;28;20037;-67
2021/07/12 05:43:22;;;;;;;44.05;36.38;;;18.20;98.50;;;;;;5027365;28;20099;-67
2021/07/12 05:45:48;;;;;;;46.47;37.13;;;18.40;98.40;;;;;;5019975;28;20033;-68
2021/07/12 05:48:14;;;;;;;41.08;35.15;;;18.60;98.20;;;;;;5029716;28;20048;-67
2021/07/12 05:50:39;;;;;;;42.80;34.20;;;18.80;98.00;;;;;;5030582;28;20030;-67
2021/07/12 05:53:05;;;;;;;39.63;34.20;;;18.90;97.70;;;;;;5021596;28;20022;-67
2021/07/12 05:55:31;;;;;;;42.00;35.95;;;19.00;97.50;;;;;;5026079;28;20025;-67
2021/07/12 05:57:56;;;;;;;36.88;32.88;;;19.10;97.50;;;;;;5027582;28;20041;-68
2021/07/12 06:00:22;;;;;;;38.75;32.80;;;19.30;97.20;;;;;;5024481;28;20103;-68
2021/07/12 06:02:48;;;;;;;36.97;31.50;;;19.40;96.90;;;;;;5033732;28;20475;-68
2021/07/12 06:05:13;;;;;;;37.92;32.70;;;19.40;96.70;;;;;;5024730;28;20036;-68
2021/07/12 06:07:40;;;;;;;32.08;28.15;;;19.50;96.60;;;;;;5028724;28;20068;-68
2021/07/12 06:10:06;;;;;;;27.75;24.77;;;19.60;96.60;;;;;;5033084;28;20121;-68
2021/07/12 06:12:32;;;;;;;27.33;24.35;;;19.70;96.00;;;;;;5032932;28;20075;-69
2021/07/12 06:14:58;;;;;;;28.10;24.52;;;19.80;95.90;;;;;;5030668;28;20037;-68
2021/07/12 06:17:23;;;;;;;25.00;22.27;;;19.90;95.70;;;;;;5031960;28;20484;-68
2021/07/12 06:19:49;;;;;;;21.13;18.92;;;20.00;95.30;;;;;;5030429;28;20041;-68
2021/07/12 06:22:15;;;;;;;21.63;19.15;;;20.10;95.00;;;;;;5031828;28;20427;-68
2021/07/12 06:24:40;;;;;;;19.67;17.58;;;20.30;94.70;;;;;;5032406;28;20499;-68
2021/07/12 06:27:06;;;;;;;19.58;17.20;;;20.30;94.80;;;;;;5030185;28;20111;-67
2021/07/12 06:29:31;;;;;;;20.75;18.65;;;20.40;94.10;;;;;;5032028;28;20256;-68
2021/07/12 06:31:57;;;;;;;18.65;16.58;;;20.50;93.90;;;;;;5032407;28;20080;-68
2021/07/12 06:34:23;;;;;;;18.58;16.65;;;20.60;93.80;;;;;;5029452;28;20530;-68
2021/07/12 06:36:49;;;;;;;18.45;16.48;;;20.70;93.50;;;;;;5027707;28;20025;-68
2021/07/12 06:39:15;;;;;;;21.48;19.27;;;20.80;93.10;;;;;;5031756;28;20025;-68
2021/07/12 06:41:41;;;;;;;18.25;16.33;;;20.80;92.70;;;;;;5032422;28;20026;-69
2021/07/12 06:44:06;;;;;;;19.63;17.10;;;20.90;92.50;;;;;;5024681;28;20523;-68
2021/07/12 06:46:32;;;;;;;16.80;15.10;;;21.00;92.00;;;;;;5023806;28;20456;-68
2021/07/12 06:48:57;;;;;;;17.80;15.98;;;21.00;92.00;;;;;;5028358;28;20480;-68
2021/07/12 06:51:23;;;;;;;17.15;14.93;;;21.20;91.90;;;;;;5029523;28;20034;-68
2021/07/12 06:53:49;;;;;;;18.13;14.30;;;21.30;91.60;;;;;;5030124;28;20053;-68
2021/07/12 06:56:14;;;;;;;16.27;14.55;;;21.40;91.30;;;;;;5030873;28;20422;-68
2021/07/12 06:58:41;;;;;;;15.65;13.95;;;21.40;91.20;;;;;;5026186;28;20021;-69
2021/07/12 07:01:10;;;;;;;15.10;12.35;;;21.50;91.00;;;;;;5025261;28;20030;-68
2021/07/12 07:03:36;;;;;;;14.30;12.68;;;21.70;90.80;;;;;;5030512;28;20033;-68
2021/07/12 07:06:02;;;;;;;15.60;13.20;;;21.80;90.20;;;;;;5014231;28;20072;-69
2021/07/12 07:08:28;;;;;;;13.38;10.90;;;21.80;89.90;;;;;;5024219;28;20026;-68
2021/07/12 07:10:54;;;;;;;12.73;11.05;;;21.90;89.50;;;;;;5031848;28;20083;-68
2021/07/12 07:13:20;;;;;;;15.13;12.13;;;22.00;89.10;;;;;;5031888;28;20033;-69
2021/07/12 07:15:48;;;;;;;11.95;10.68;;;22.00;88.40;;;;;;5024081;28;20037;-69
2021/07/12 07:18:14;;;;;;;10.68;9.00;;;22.10;88.60;;;;;;5030633;28;20034;-69
2021/07/12 07:20:40;;;;;;;10.40;8.77;;;22.30;87.70;;;;;;5030633;28;20045;-69
2021/07/12 07:23:09;;;;;;;9.77;7.38;;;22.40;87.10;;;;;;5030266;28;20482;-69
2021/07/12 07:25:38;;;;;;;11.48;7.57;;;22.50;86.00;;;;;;5015100;28;20025;-69
2021/07/12 07:28:04;;;;;;;8.02;7.15;;;22.70;85.80;;;;;;5027095;28;20036;-69
2021/07/12 07:30:30;;;;;;;9.90;6.88;;;22.80;85.50;;;;;;5027141;28;20626;-68
2021/07/12 07:32:56;;;;;;;9.70;7.00;;;23.00;85.00;;;;;;5028237;28;20062;-67
2021/07/12 07:35:22;;;;;;;8.90;6.65;;;23.10;84.20;;;;;;5027110;28;20030;-67
2021/07/12 07:37:48;;;;;;;8.57;6.45;;;23.10;83.50;;;;;;5031137;28;20036;-68
2021/07/12 07:40:18;;;;;;;7.40;5.75;;;23.10;82.90;;;;;;5029755;28;20105;-67
2021/07/12 07:42:44;;;;;;;9.20;6.75;;;23.20;83.70;;;;;;5031632;28;20030;-67
2021/07/12 07:45:13;;;;;;;8.98;5.97;;;23.30;83.30;;;;;;5035851;28;20037;-67
2021/07/12 07:47:40;;;;;;;8.63;6.20;;;23.50;83.40;;;;;;5030907;28;20033;-68
2021/07/12 07:50:07;;;;;;;10.38;6.32;;;23.50;81.40;;;;;;5033605;28;20036;-67
2021/07/12 07:52:33;;;;;;;7.22;6.00;;;23.50;81.30;;;;;;5033293;28;20068;-68
2021/07/12 07:54:59;;;;;;;10.20;7.75;;;23.60;81.20;;;;;;5024129;28;20025;-68
2021/07/12 07:57:24;;;;;;;8.10;6.35;;;23.70;79.90;;;;;;5034266;28;20108;-68
2021/07/12 07:59:50;;;;;;;8.73;5.70;;;23.70;79.70;;;;;;5031410;28;20049;-68
2021/07/12 08:02:15;;;;;;;10.18;6.35;;;23.70;79.50;;;;;;5026043;28;20057;-67
2021/07/12 08:04:41;;;;;;;6.10;5.07;;;23.80;79.50;;;;;;5026989;28;20068;-68
2021/07/12 08:07:07;;;;;;;6.50;4.47;;;23.90;78.60;;;;;;5033024;28;20438;-67
2021/07/12 08:09:33;;;;;;;6.85;4.55;;;24.00;78.60;;;;;;5035473;28;20415;-67
2021/07/12 08:11:59;;;;;;;5.35;3.03;;;24.20;78.10;;;;;;5032885;28;20479;-67
2021/07/12 08:14:24;;;;;;;4.18;3.33;;;24.30;77.00;;;;;;5033337;28;20034;-67
2021/07/12 08:16:50;;;;;;;2.53;1.67;;;24.30;76.50;;;;;;5034004;28;20037;-67
2021/07/12 08:19:16;;;;;;;3.22;1.52;;;24.30;75.90;;;;;;5035419;28;20476;-68
2021/07/12 08:21:43;;;;;;;2.42;1.15;;;24.30;74.70;;;;;;5033758;28;20029;-68
2021/07/12 08:24:08;;;;;;;2.20;1.48;;;24.40;73.20;;;;;;5034250;28;20430;-68
2021/07/12 08:26:34;;;;;;;2.83;1.35;;;24.40;72.50;;;;;;5028420;28;20101;-68
2021/07/12 08:28:59;;;;;;;2.03;1.08;;;24.40;73.20;;;;;;5034591;28;20031;-68
2021/07/12 08:31:25;;;;;;;1.38;0.80;;;24.40;72.40;;;;;;5033148;28;20380;-68
2021/07/12 08:33:50;;;;;;;1.25;0.70;;;24.40;72.90;;;;;;5032763;28;20375;-68
2021/07/12 08:36:18;;;;;;;3.25;0.90;;;24.40;72.80;;;;;;5030790;28;20503;-67
2021/07/12 08:38:47;;;;;;;1.63;1.10;;;24.50;73.00;;;;;;5035073;28;20025;-67
2021/07/12 08:41:12;;;;;;;3.70;0.90;;;24.50;72.90;;;;;;5034021;28;20021;-68
2021/07/12 08:43:40;;;;;;;3.65;1.60;;;24.50;72.20;;;;;;5033593;28;20092;-68
2021/07/12 08:46:06;;;;;;;3.22;1.60;;;24.50;71.80;;;;;;5034153;28;20092;-68
2021/07/12 08:48:32;;;;;;;2.38;1.48;;;24.60;72.70;;;;;;5034893;28;20025;-68
2021/07/12 08:50:57;;;;;;;2.00;1.63;;;24.60;71.80;;;;;;5026119;28;20065;-67
2021/07/12 08:53:23;;;;;;;3.22;1.40;;;24.70;71.90;;;;;;5034648;28;20476;-68
2021/07/12 08:55:49;;;;;;;2.83;2.03;;;24.70;71.60;;;;;;5033741;28;20064;-67
2021/07/12 08:58:23;;;;;;;2.72;2.25;;;24.70;71.50;;;;;;5031131;28;20430;-67
2021/07/12 09:01:00;;;;;;;3.97;2.08;;;24.70;71.40;;;;;;5033133;28;20156;-68
2021/07/12 09:03:33;;;;;;;2.55;1.30;;;24.70;71.30;;;;;;5021602;28;20034;-69
2021/07/12 09:06:06;;;;;;;2.13;1.15;;;24.80;72.30;;;;;;5032573;28;20099;-67
2021/07/12 09:08:46;;;;;;;4.15;1.42;;;24.90;71.80;;;;;;5034355;28;20025;-69
2021/07/12 09:11:18;;;;;;;2.17;1.20;;;25.00;69.90;;;;;;5032459;28;20396;-68
2021/07/12 09:13:54;;;;;;;;;;;25.20;69.60;;;;;;5032708;28;20017;-67
2021/07/12 09:16:47;;;;;;;2.08;1.20;;;25.30;69.90;;;;;;5032802;28;19913;-67
2021/07/12 09:19:20;;;;;;;2.38;1.27;;;25.50;69.40;;;;;;5031452;28;20045;-69
2021/07/12 09:21:59;;;;;;;3.72;1.55;;;25.70;68.30;;;;;;5032760;28;20031;-67
2021/07/12 09:24:30;;;;;;;3.10;2.00;;;25.80;67.20;;;;;;5031678;28;20061;-69
2021/07/12 09:27:00;;;;;;;2.10;1.35;;;25.80;67.30;;;;;;5027104;28;20119;-67
2021/07/12 09:29:28;;;;;;;2.40;1.50;;;25.60;67.30;;;;;;5033002;28;20029;-68
2021/07/12 09:31:54;;;;;;;2.22;1.70;;;25.50;67.80;;;;;;5031388;28;20400;-67
2021/07/12 09:34:23;;;;;;;3.72;1.63;;;25.60;68.10;;;;;;5031566;28;20040;-68
2021/07/12 09:36:49;;;;;;;2.35;1.45;;;25.60;68.10;;;;;;5033893;28;20033;-69
2021/07/12 09:39:36;;;;;;;1.70;1.10;;;25.50;68.10;;;;;;5030586;28;20033;-68
2021/07/12 09:42:10;;;;;;;2.40;1.30;;;25.60;68.10;;;;;;5032278;28;20022;-68
2021/07/12 09:44:42;;;;;;;3.30;1.73;;;25.60;67.60;;;;;;5027344;28;20021;-67
2021/07/12 09:47:14;;;;;;;2.95;1.20;;;25.70;66.10;;;;;;5027062;28;20065;-67
2021/07/12 09:49:41;;;;;;;2.08;1.52;;;25.60;66.30;;;;;;5024134;28;20041;-67
2021/07/12 09:52:10;;;;;;;2.58;1.30;;;25.50;66.60;;;;;;5022324;28;20027;-67
2021/07/12 09:54:38;;;;;;;2.13;1.33;;;25.40;66.60;;;;;;5033275;28;20049;-67
2021/07/12 09:57:05;;;;;;;2.03;1.45;;;25.40;67.30;;;;;;5024980;28;20020;-67
2021/07/12 09:59:32;;;;;;;2.60;1.50;;;25.50;65.90;;;;;;5029822;28;20454;-67
2021/07/12 10:01:57;;;;;;;2.15;1.48;;;25.80;65.50;;;;;;5027201;28;20055;-69
2021/07/12 10:04:25;;;;;;;2.28;1.52;;;25.80;65.20;;;;;;5032033;28;20484;-68
2021/07/12 10:06:53;;;;;;;3.85;1.70;;;25.80;65.20;;;;;;5024741;28;20069;-68
2021/07/12 10:09:24;;;;;;;2.08;1.30;;;25.90;65.00;;;;;;5021421;28;20049;-68
2021/07/12 10:11:52;;;;;;;2.72;1.67;;;26.10;64.60;;;;;;5032878;28;20080;-67
2021/07/12 10:14:18;;;;;;;1.92;1.13;;;26.20;64.20;;;;;;5031144;28;20041;-67
2021/07/12 10:16:44;;;;;;;1.80;1.17;;;26.40;63.60;;;;;;5032569;28;20049;-68
2021/07/12 10:19:10;;;;;;;2.65;1.60;;;26.60;62.10;;;;;;5033419;28;20025;-68
2021/07/12 10:21:39;;;;;;;2.25;1.00;;;26.70;61.80;;;;;;5021589;28;20029;-68
2021/07/12 10:24:05;;;;;;;1.85;1.30;;;26.90;62.40;;;;;;5025759;28;20108;-68
2021/07/12 10:26:49;;;;;;;2.38;1.50;;;27.10;61.80;;;;;;5026270;28;20025;-67
2021/07/12 10:29:23;;;;;;;2.75;1.30;;;27.40;61.50;;;;;;5021777;28;20061;-68
2021/07/12 10:31:57;;;;;;;2.35;0.80;;;27.40;59.00;;;;;;5013656;28;20022;-68
2021/07/12 10:34:25;;;;;;;1.80;1.10;;;27.40;59.80;;;;;;5026821;28;20029;-68
2021/07/12 10:37:03;;;;;;;2.28;1.35;;;27.30;59.60;;;;;;5024991;28;20482;-68
2021/07/12 10:39:57;;;;;;;2.00;1.55;;;27.20;60.30;;;;;;5031299;28;20021;-68
2021/07/12 10:42:41;;;;;;;2.95;1.83;;;27.20;61.00;;;;;;5026332;28;20049;-68
2021/07/12 10:45:18;;;;;;;1.88;1.55;;;27.30;60.10;;;;;;5025479;28;20079;-68
2021/07/12 10:47:49;;;;;;;2.20;1.30;;;27.20;60.10;;;;;;5030437;28;20049;-68
2021/07/12 10:50:43;;;;;;;2.63;1.30;;;27.10;59.60;;;;;;5029421;28;20033;-68
2021/07/12 10:53:15;;;;;;;2.00;1.40;;;27.20;59.30;;;;;;5016356;28;20024;-68
2021/07/12 10:56:06;;;;;;;3.15;1.80;;;27.40;59.30;;;;;;5029334;28;20030;-68
2021/07/12 10:58:31;;;;;;;2.60;1.83;;;27.60;58.60;;;;;;5032727;28;20507;-68
2021/07/12 11:01:04;;;;;;;2.03;1.58;;;27.60;57.80;;;;;;5032126;28;20034;-68
2021/07/12 11:03:37;;;;;;;1.85;1.30;;;27.50;58.00;;;;;;5031365;28;20479;-68
2021/07/12 11:06:14;;;;;;;1.50;0.98;;;27.60;58.90;;;;;;5032461;28;20022;-68
2021/07/12 11:08:49;;;;;;;2.00;1.50;;;27.60;58.20;;;;;;5032649;28;20026;-68
2021/07/12 11:11:20;;;;;;;1.90;1.20;;;27.70;57.20;;;;;;5032298;28;20108;-68
2021/07/12 11:13:59;;;;;;;2.40;1.58;;;27.60;57.10;;;;;;5030426;28;20021;-68
2021/07/12 11:16:45;;;;;;;3.72;1.58;;;27.50;57.40;;;;;;5032508;28;20038;-67
2021/07/12 11:19:32;;;;;;;2.30;1.90;;;27.40;57.80;;;;;;5036210;28;20464;-66
2021/07/12 11:22:13;;;;;;;4.03;2.60;;;27.20;57.50;;;;;;5036480;28;20493;-66
2021/07/12 11:24:58;;;;;;;3.20;2.40;;;27.00;57.70;;;;;;5035561;28;20029;-65
2021/07/12 11:27:35;;;;;;;6.60;5.40;;;27.00;58.70;;;;;;5034813;28;20400;-68
2021/07/12 11:30:38;;;;;;;7.22;6.53;;;26.90;58.90;;;;;;5032172;28;20065;-69
2021/07/12 11:33:07;;;;;;;5.90;5.35;;;26.80;59.70;;;;;;5028099;28;20032;-69
2021/07/12 11:35:33;;;;;;;3.53;3.20;;;26.80;60.60;;;;;;5023534;28;20045;-68
2021/07/12 11:38:00;;;;;;;3.65;2.72;;;26.80;60.10;;;;;;5029199;28;20105;-68
2021/07/12 11:40:26;;;;;;;4.93;2.42;;;26.80;60.40;;;;;;5034667;28;20299;-68
2021/07/12 11:42:51;;;;;;;3.05;2.75;;;26.90;60.50;;;;;;5026954;28;20530;-68
2021/07/12 11:45:19;;;;;;;3.80;2.92;;;26.90;59.70;;;;;;5034476;28;20495;-68
2021/07/12 11:47:47;;;;;;;5.18;2.60;;;27.00;59.30;;;;;;5035949;28;20041;-69
2021/07/12 11:50:15;;;;;;;3.25;2.65;;;27.00;59.50;;;;;;5035472;28;20037;-68
2021/07/12 11:52:47;;;;;;;3.03;2.72;;;27.10;59.70;;;;;;5016125;28;20464;-70
2021/07/12 11:55:19;;;;;;;2.50;2.03;;;27.30;60.20;;;;;;5029540;28;20432;-67
2021/07/12 11:57:46;;;;;;;;;;;27.40;59.70;;;;;;5032059;28;20493;-69
2021/07/12 12:00:15;;;;;;;2.10;1.70;;;27.50;59.60;;;;;;5025770;28;19909;-68
2021/07/12 12:02:41;;;;;;;2.58;1.40;;;27.80;59.80;;;;;;5030478;28;20025;-69
2021/07/12 12:05:09;;;;;;;2.20;1.40;;;27.90;58.60;;;;;;5034310;28;20118;-69
2021/07/12 12:07:39;;;;;;;2.88;1.65;;;27.90;57.30;;;;;;5028394;28;20156;-69
2021/07/12 12:10:12;;;;;;;1.95;1.60;;;27.90;57.40;;;;;;5028956;28;20037;-69
2021/07/12 12:12:43;;;;;;;2.90;1.80;;;27.80;56.90;;;;;;5031061;28;20101;-69
2021/07/12 12:15:26;;;;;;;2.25;1.58;;;27.70;57.30;;;;;;5035554;28;20368;-69
2021/07/12 12:17:55;;;;;;;3.08;2.03;;;27.60;58.30;;;;;;5030117;28;20033;-69
2021/07/12 12:20:32;;;;;;;4.22;1.77;;;27.50;58.60;;;;;;5033458;28;20072;-68
2021/07/12 12:23:18;;;;;;;4.13;2.28;;;27.50;58.50;;;;;;5017313;28;20084;-68
2021/07/12 12:25:55;;;;;;;2.65;1.70;;;27.50;59.50;;;;;;5025054;28;20527;-68
2021/07/12 12:28:35;;;;;;;2.15;1.58;;;27.40;59.00;;;;;;5028675;28;20029;-69
2021/07/12 12:31:15;;;;;;;2.75;2.28;;;27.40;58.80;;;;;;5024810;28;20030;-69
2021/07/12 12:33:46;;;;;;;2.85;2.08;;;27.30;59.20;;;;;;5021995;28;20030;-69
2021/07/12 12:36:23;;;;;;;4.22;2.50;;;27.10;59.30;;;;;;5022345;28;20029;-69
2021/07/12 12:38:58;;;;;;;3.67;2.22;;;27.00;59.60;;;;;;5032339;28;20030;-69
2021/07/12 12:41:31;;;;;;;4.25;2.13;;;27.10;60.40;;;;;;5035294;28;20426;-68
2021/07/12 12:44:03;;;;;;;3.35;1.95;;;27.20;59.80;;;;;;5025659;28;20771;-69
2021/07/12 12:46:29;;;;;;;2.88;1.90;;;27.40;60.40;;;;;;5030479;28;20033;-68